sensor_id;sensor_type;location;lat;lon;timestamp;P1;durP1;ratioP1;P2;durP2;ratioP2
62832;SDS011;48891;49.220;6.920;2023-01-23T00:02:13;57.90;;;38.22;;
62832;SDS011;48891;49.220;6.920;2023-01-23T00:04:38;57.20;;;38.50;;
62832;SDS011;48891;49.220;6.920;2023-01-23T00:07:03;55.17;;;39.10;;
62832;SDS011;48891;49.220;6.920;2023-01-23T00:09:29;55.95;;;38.45;;
62832;SDS011;48891;49.220;6.920;2023-01-23T00:11:54;56.75;;;38.47;;
62832;SDS011;48891;49.220;6.920;2023-01-23T00:14:19;60.15;;;40.63;;
62832;SDS011;48891;49.220;6.920;2023-01-23T00:16:44;61.42;;;40.63;;
62832;SDS011;48891;49.220;6.920;2023-01-23T00:19:10;61.92;;;40.75;;
62832;SDS011;48891;49.220;6.920;2023-01-23T00:21:35;57.88;;;39.22;;
62832;SDS011;48891;49.220;6.920;2023-01-23T00:24:00;62.20;;;40.60;;
62832;SDS011;48891;49.220;6.920;2023-01-23T00:26:27;58.78;;;39.40;;
62832;SDS011;48891;49.220;6.920;2023-01-23T00:28:54;59.83;;;39.05;;
62832;SDS011;48891;49.220;6.920;2023-01-23T00:31:20;57.95;;;39.40;;
62832;SDS011;48891;49.220;6.920;2023-01-23T00:33:47;62.42;;;39.38;;
62832;SDS011;48891;49.220;6.920;2023-01-23T00:36:16;60.70;;;39.13;;
62832;SDS011;48891;49.220;6.920;2023-01-23T00:38:42;62.72;;;39.78;;
62832;SDS011;48891;49.220;6.920;2023-01-23T00:41:07;60.33;;;38.67;;
62832;SDS011;48891;49.220;6.920;2023-01-23T00:43:32;59.38;;;40.03;;
62832;SDS011;48891;49.220;6.920;2023-01-23T00:45:58;59.17;;;39.28;;
62832;SDS011;48891;49.220;6.920;2023-01-23T00:48:24;63.88;;;40.75;;
62832;SDS011;48891;49.220;6.920;2023-01-23T00:50:49;57.38;;;38.38;;
62832;SDS011;48891;49.220;6.920;2023-01-23T00:53:15;57.55;;;38.47;;
62832;SDS011;48891;49.220;6.920;2023-01-23T00:55:40;61.35;;;40.00;;
62832;SDS011;48891;49.220;6.920;2023-01-23T00:58:06;57.22;;;39.92;;
62832;SDS011;48891;49.220;6.920;2023-01-23T01:00:32;58.53;;;39.15;;
62832;SDS011;48891;49.220;6.920;2023-01-23T01:02:58;58.28;;;39.03;;
62832;SDS011;48891;49.220;6.920;2023-01-23T01:05:23;60.78;;;39.45;;
62832;SDS011;48891;49.220;6.920;2023-01-23T01:07:48;63.40;;;39.05;;
62832;SDS011;48891;49.220;6.920;2023-01-23T01:10:14;61.38;;;39.30;;
62832;SDS011;48891;49.220;6.920;2023-01-23T01:12:39;58.42;;;38.67;;
62832;SDS011;48891;49.220;6.920;2023-01-23T01:15:05;59.05;;;39.00;;
62832;SDS011;48891;49.220;6.920;2023-01-23T01:17:31;58.88;;;38.58;;
62832;SDS011;48891;49.220;6.920;2023-01-23T01:19:57;62.50;;;39.55;;
62832;SDS011;48891;49.220;6.920;2023-01-23T01:22:22;63.03;;;39.35;;
62832;SDS011;48891;49.220;6.920;2023-01-23T01:24:47;63.03;;;39.47;;
62832;SDS011;48891;49.220;6.920;2023-01-23T01:27:12;59.38;;;39.42;;
62832;SDS011;48891;49.220;6.920;2023-01-23T01:29:38;59.40;;;39.55;;
62832;SDS011;48891;49.220;6.920;2023-01-23T01:32:03;58.95;;;39.40;;
62832;SDS011;48891;49.220;6.920;2023-01-23T01:34:28;57.63;;;39.63;;
62832;SDS011;48891;49.220;6.920;2023-01-23T01:36:54;58.80;;;37.58;;
62832;SDS011;48891;49.220;6.920;2023-01-23T01:39:19;61.83;;;39.30;;
62832;SDS011;48891;49.220;6.920;2023-01-23T01:41:44;58.90;;;38.05;;
62832;SDS011;48891;49.220;6.920;2023-01-23T01:44:15;60.53;;;37.95;;
62832;SDS011;48891;49.220;6.920;2023-01-23T01:46:43;56.97;;;37.35;;
62832;SDS011;48891;49.220;6.920;2023-01-23T01:54:31;59.78;;;37.67;;
62832;SDS011;48891;49.220;6.920;2023-01-23T01:59:31;60.53;;;38.17;;
62832;SDS011;48891;49.220;6.920;2023-01-23T02:02:06;60.08;;;38.65;;
62832;SDS011;48891;49.220;6.920;2023-01-23T02:04:36;56.58;;;38.25;;
62832;SDS011;48891;49.220;6.920;2023-01-23T02:07:07;57.45;;;36.95;;
62832;SDS011;48891;49.220;6.920;2023-01-23T02:09:37;56.80;;;36.28;;
62832;SDS011;48891;49.220;6.920;2023-01-23T02:12:02;59.00;;;38.30;;
62832;SDS011;48891;49.220;6.920;2023-01-23T02:14:28;58.35;;;36.95;;
62832;SDS011;48891;49.220;6.920;2023-01-23T02:16:54;59.10;;;37.90;;
62832;SDS011;48891;49.220;6.920;2023-01-23T02:21:52;55.20;;;36.47;;
62832;SDS011;48891;49.220;6.920;2023-01-23T02:24:38;56.50;;;36.42;;
62832;SDS011;48891;49.220;6.920;2023-01-23T02:27:08;56.88;;;35.85;;
62832;SDS011;48891;49.220;6.920;2023-01-23T02:29:43;55.65;;;36.53;;
62832;SDS011;48891;49.220;6.920;2023-01-23T02:32:09;58.10;;;37.60;;
62832;SDS011;48891;49.220;6.920;2023-01-23T02:34:34;53.78;;;35.22;;
62832;SDS011;48891;49.220;6.920;2023-01-23T02:36:59;59.75;;;36.53;;
62832;SDS011;48891;49.220;6.920;2023-01-23T02:39:25;56.65;;;34.60;;
62832;SDS011;48891;49.220;6.920;2023-01-23T02:41:51;54.80;;;34.83;;
62832;SDS011;48891;49.220;6.920;2023-01-23T02:44:28;55.03;;;36.28;;
62832;SDS011;48891;49.220;6.920;2023-01-23T02:47:12;58.85;;;36.25;;
62832;SDS011;48891;49.220;6.920;2023-01-23T02:49:38;56.30;;;35.75;;
62832;SDS011;48891;49.220;6.920;2023-01-23T02:52:04;57.35;;;35.08;;
62832;SDS011;48891;49.220;6.920;2023-01-23T02:54:30;55.20;;;34.92;;
62832;SDS011;48891;49.220;6.920;2023-01-23T02:56:55;51.50;;;34.67;;
62832;SDS011;48891;49.220;6.920;2023-01-23T02:59:20;52.10;;;34.58;;
62832;SDS011;48891;49.220;6.920;2023-01-23T03:01:45;52.20;;;33.28;;
62832;SDS011;48891;49.220;6.920;2023-01-23T03:04:11;54.00;;;33.35;;
62832;SDS011;48891;49.220;6.920;2023-01-23T03:06:36;51.90;;;33.55;;
62832;SDS011;48891;49.220;6.920;2023-01-23T03:09:06;56.13;;;34.55;;
62832;SDS011;48891;49.220;6.920;2023-01-23T03:11:35;53.85;;;34.47;;
62832;SDS011;48891;49.220;6.920;2023-01-23T03:14:02;51.17;;;33.78;;
62832;SDS011;48891;49.220;6.920;2023-01-23T03:16:27;56.17;;;33.95;;
62832;SDS011;48891;49.220;6.920;2023-01-23T03:18:53;51.13;;;33.08;;
62832;SDS011;48891;49.220;6.920;2023-01-23T03:21:18;50.13;;;33.75;;
62832;SDS011;48891;49.220;6.920;2023-01-23T03:23:44;52.25;;;33.50;;
62832;SDS011;48891;49.220;6.920;2023-01-23T03:26:09;54.17;;;33.13;;
62832;SDS011;48891;49.220;6.920;2023-01-23T03:28:34;55.33;;;34.60;;
62832;SDS011;48891;49.220;6.920;2023-01-23T03:30:59;52.83;;;33.83;;
62832;SDS011;48891;49.220;6.920;2023-01-23T03:33:25;48.92;;;31.45;;
62832;SDS011;48891;49.220;6.920;2023-01-23T03:35:50;54.15;;;33.75;;
62832;SDS011;48891;49.220;6.920;2023-01-23T03:38:15;53.53;;;33.97;;
62832;SDS011;48891;49.220;6.920;2023-01-23T03:40:40;51.30;;;32.25;;
62832;SDS011;48891;49.220;6.920;2023-01-23T03:43:06;51.10;;;32.45;;
62832;SDS011;48891;49.220;6.920;2023-01-23T03:45:31;49.17;;;30.27;;
62832;SDS011;48891;49.220;6.920;2023-01-23T03:47:56;49.70;;;32.17;;
62832;SDS011;48891;49.220;6.920;2023-01-23T03:50:21;51.92;;;32.78;;
62832;SDS011;48891;49.220;6.920;2023-01-23T03:52:47;48.53;;;31.10;;
62832;SDS011;48891;49.220;6.920;2023-01-23T03:55:12;49.30;;;31.55;;
62832;SDS011;48891;49.220;6.920;2023-01-23T03:57:37;50.90;;;31.70;;
62832;SDS011;48891;49.220;6.920;2023-01-23T04:00:03;48.85;;;32.47;;
62832;SDS011;48891;49.220;6.920;2023-01-23T04:02:29;51.05;;;31.77;;
62832;SDS011;48891;49.220;6.920;2023-01-23T04:04:55;50.42;;;31.30;;
62832;SDS011;48891;49.220;6.920;2023-01-23T04:07:20;47.08;;;31.33;;
62832;SDS011;48891;49.220;6.920;2023-01-23T04:09:45;46.88;;;31.23;;
62832;SDS011;48891;49.220;6.920;2023-01-23T04:12:10;47.10;;;30.45;;
62832;SDS011;48891;49.220;6.920;2023-01-23T04:14:36;51.08;;;31.40;;
62832;SDS011;48891;49.220;6.920;2023-01-23T04:17:05;46.92;;;29.40;;
62832;SDS011;48891;49.220;6.920;2023-01-23T04:19:31;47.45;;;30.88;;
62832;SDS011;48891;49.220;6.920;2023-01-23T04:21:56;46.63;;;30.02;;
62832;SDS011;48891;49.220;6.920;2023-01-23T04:24:22;45.28;;;30.02;;
62832;SDS011;48891;49.220;6.920;2023-01-23T04:26:47;49.13;;;30.13;;
62832;SDS011;48891;49.220;6.920;2023-01-23T04:29:12;44.42;;;28.33;;
62832;SDS011;48891;49.220;6.920;2023-01-23T04:31:37;45.30;;;29.40;;
62832;SDS011;48891;49.220;6.920;2023-01-23T04:34:03;46.85;;;29.60;;
62832;SDS011;48891;49.220;6.920;2023-01-23T04:36:28;46.47;;;29.13;;
62832;SDS011;48891;49.220;6.920;2023-01-23T04:38:54;47.80;;;29.15;;
62832;SDS011;48891;49.220;6.920;2023-01-23T04:41:21;46.78;;;29.60;;
62832;SDS011;48891;49.220;6.920;2023-01-23T04:43:48;45.30;;;28.48;;
62832;SDS011;48891;49.220;6.920;2023-01-23T04:46:13;43.85;;;27.98;;
62832;SDS011;48891;49.220;6.920;2023-01-23T04:48:39;46.53;;;28.60;;
62832;SDS011;48891;49.220;6.920;2023-01-23T04:51:04;48.20;;;29.02;;
62832;SDS011;48891;49.220;6.920;2023-01-23T04:53:30;48.83;;;29.52;;
62832;SDS011;48891;49.220;6.920;2023-01-23T04:55:55;46.63;;;28.40;;
62832;SDS011;48891;49.220;6.920;2023-01-23T04:58:20;42.47;;;27.92;;
62832;SDS011;48891;49.220;6.920;2023-01-23T05:00:46;44.28;;;28.15;;
62832;SDS011;48891;49.220;6.920;2023-01-23T05:03:11;45.38;;;27.63;;
62832;SDS011;48891;49.220;6.920;2023-01-23T05:05:37;43.47;;;27.48;;
62832;SDS011;48891;49.220;6.920;2023-01-23T05:08:02;44.20;;;27.70;;
62832;SDS011;48891;49.220;6.920;2023-01-23T05:10:28;41.88;;;27.00;;
62832;SDS011;48891;49.220;6.920;2023-01-23T05:12:53;42.25;;;26.58;;
62832;SDS011;48891;49.220;6.920;2023-01-23T05:15:18;39.78;;;25.42;;
62832;SDS011;48891;49.220;6.920;2023-01-23T05:17:44;42.40;;;26.38;;
62832;SDS011;48891;49.220;6.920;2023-01-23T05:20:09;41.15;;;26.65;;
62832;SDS011;48891;49.220;6.920;2023-01-23T05:22:35;41.42;;;26.67;;
62832;SDS011;48891;49.220;6.920;2023-01-23T05:25:00;42.17;;;25.92;;
62832;SDS011;48891;49.220;6.920;2023-01-23T05:27:25;43.45;;;27.05;;
62832;SDS011;48891;49.220;6.920;2023-01-23T05:29:51;42.40;;;26.42;;
62832;SDS011;48891;49.220;6.920;2023-01-23T05:32:16;41.67;;;26.42;;
62832;SDS011;48891;49.220;6.920;2023-01-23T05:34:41;38.10;;;25.70;;
62832;SDS011;48891;49.220;6.920;2023-01-23T05:37:06;42.38;;;26.27;;
62832;SDS011;48891;49.220;6.920;2023-01-23T05:39:32;43.38;;;26.35;;
62832;SDS011;48891;49.220;6.920;2023-01-23T05:41:57;42.13;;;26.20;;
62832;SDS011;48891;49.220;6.920;2023-01-23T05:44:22;40.35;;;26.27;;
62832;SDS011;48891;49.220;6.920;2023-01-23T05:46:48;42.45;;;25.67;;
62832;SDS011;48891;49.220;6.920;2023-01-23T05:49:13;38.45;;;24.77;;
62832;SDS011;48891;49.220;6.920;2023-01-23T05:51:38;39.00;;;24.48;;
62832;SDS011;48891;49.220;6.920;2023-01-23T05:54:03;36.28;;;23.65;;
62832;SDS011;48891;49.220;6.920;2023-01-23T05:56:29;39.75;;;24.88;;
62832;SDS011;48891;49.220;6.920;2023-01-23T05:58:54;39.42;;;24.92;;
62832;SDS011;48891;49.220;6.920;2023-01-23T06:01:20;38.28;;;24.15;;
62832;SDS011;48891;49.220;6.920;2023-01-23T06:03:46;38.15;;;24.02;;
62832;SDS011;48891;49.220;6.920;2023-01-23T06:06:11;38.45;;;23.65;;
62832;SDS011;48891;49.220;6.920;2023-01-23T06:08:37;40.60;;;24.15;;
62832;SDS011;48891;49.220;6.920;2023-01-23T06:11:02;38.47;;;23.38;;
62832;SDS011;48891;49.220;6.920;2023-01-23T06:13:27;36.10;;;23.77;;
62832;SDS011;48891;49.220;6.920;2023-01-23T06:15:52;36.20;;;23.45;;
62832;SDS011;48891;49.220;6.920;2023-01-23T06:18:18;34.60;;;23.23;;
62832;SDS011;48891;49.220;6.920;2023-01-23T06:20:44;36.25;;;23.70;;
62832;SDS011;48891;49.220;6.920;2023-01-23T06:23:09;36.13;;;22.98;;
62832;SDS011;48891;49.220;6.920;2023-01-23T06:25:35;39.33;;;23.30;;
62832;SDS011;48891;49.220;6.920;2023-01-23T06:28:01;38.58;;;22.85;;
62832;SDS011;48891;49.220;6.920;2023-01-23T06:30:26;33.42;;;22.55;;
62832;SDS011;48891;49.220;6.920;2023-01-23T06:32:51;32.20;;;20.90;;
62832;SDS011;48891;49.220;6.920;2023-01-23T06:35:17;34.97;;;21.38;;
62832;SDS011;48891;49.220;6.920;2023-01-23T06:37:42;34.53;;;21.58;;
62832;SDS011;48891;49.220;6.920;2023-01-23T06:40:08;34.65;;;21.40;;
62832;SDS011;48891;49.220;6.920;2023-01-23T06:42:34;35.72;;;21.35;;
62832;SDS011;48891;49.220;6.920;2023-01-23T06:44:59;36.83;;;22.52;;
62832;SDS011;48891;49.220;6.920;2023-01-23T06:47:24;33.55;;;21.48;;
62832;SDS011;48891;49.220;6.920;2023-01-23T06:49:50;35.03;;;21.17;;
62832;SDS011;48891;49.220;6.920;2023-01-23T06:52:15;33.17;;;21.00;;
62832;SDS011;48891;49.220;6.920;2023-01-23T06:54:40;34.50;;;21.08;;
62832;SDS011;48891;49.220;6.920;2023-01-23T06:57:05;34.90;;;20.70;;
62832;SDS011;48891;49.220;6.920;2023-01-23T06:59:31;30.83;;;19.52;;
62832;SDS011;48891;49.220;6.920;2023-01-23T07:01:56;31.85;;;20.85;;
62832;SDS011;48891;49.220;6.920;2023-01-23T07:04:21;32.47;;;20.58;;
62832;SDS011;48891;49.220;6.920;2023-01-23T07:06:46;30.02;;;20.08;;
62832;SDS011;48891;49.220;6.920;2023-01-23T07:09:12;34.63;;;21.00;;
62832;SDS011;48891;49.220;6.920;2023-01-23T07:11:37;33.25;;;20.92;;
62832;SDS011;48891;49.220;6.920;2023-01-23T07:14:03;31.42;;;20.92;;
62832;SDS011;48891;49.220;6.920;2023-01-23T07:16:28;31.13;;;19.27;;
62832;SDS011;48891;49.220;6.920;2023-01-23T07:18:53;33.55;;;20.83;;
62832;SDS011;48891;49.220;6.920;2023-01-23T07:21:20;32.75;;;20.40;;
62832;SDS011;48891;49.220;6.920;2023-01-23T07:23:45;32.25;;;19.98;;
62832;SDS011;48891;49.220;6.920;2023-01-23T07:26:10;29.60;;;18.98;;
62832;SDS011;48891;49.220;6.920;2023-01-23T07:28:36;29.27;;;19.45;;
62832;SDS011;48891;49.220;6.920;2023-01-23T07:31:01;31.95;;;18.83;;
62832;SDS011;48891;49.220;6.920;2023-01-23T07:33:26;30.88;;;19.17;;
62832;SDS011;48891;49.220;6.920;2023-01-23T07:35:52;30.98;;;19.02;;
62832;SDS011;48891;49.220;6.920;2023-01-23T07:38:17;29.63;;;18.85;;
62832;SDS011;48891;49.220;6.920;2023-01-23T07:40:42;30.92;;;18.80;;
62832;SDS011;48891;49.220;6.920;2023-01-23T07:43:08;30.67;;;19.05;;
62832;SDS011;48891;49.220;6.920;2023-01-23T07:45:33;32.13;;;18.85;;
62832;SDS011;48891;49.220;6.920;2023-01-23T07:47:58;29.92;;;18.73;;
62832;SDS011;48891;49.220;6.920;2023-01-23T07:50:23;30.88;;;19.65;;
62832;SDS011;48891;49.220;6.920;2023-01-23T07:52:49;30.38;;;18.25;;
62832;SDS011;48891;49.220;6.920;2023-01-23T07:55:14;31.30;;;18.50;;
62832;SDS011;48891;49.220;6.920;2023-01-23T07:57:39;31.70;;;19.25;;
62832;SDS011;48891;49.220;6.920;2023-01-23T08:00:04;29.27;;;17.50;;
62832;SDS011;48891;49.220;6.920;2023-01-23T08:02:30;31.17;;;18.48;;
62832;SDS011;48891;49.220;6.920;2023-01-23T08:04:55;30.15;;;17.92;;
62832;SDS011;48891;49.220;6.920;2023-01-23T08:07:21;28.95;;;18.08;;
62832;SDS011;48891;49.220;6.920;2023-01-23T08:09:46;27.77;;;16.60;;
62832;SDS011;48891;49.220;6.920;2023-01-23T08:12:11;28.40;;;17.10;;
62832;SDS011;48891;49.220;6.920;2023-01-23T08:14:37;26.50;;;16.73;;
62832;SDS011;48891;49.220;6.920;2023-01-23T08:17:02;30.10;;;17.60;;
62832;SDS011;48891;49.220;6.920;2023-01-23T08:19:27;29.52;;;17.48;;
62832;SDS011;48891;49.220;6.920;2023-01-23T08:21:53;27.00;;;17.33;;
62832;SDS011;48891;49.220;6.920;2023-01-23T08:24:18;27.80;;;16.88;;
62832;SDS011;48891;49.220;6.920;2023-01-23T08:26:44;27.77;;;17.58;;
62832;SDS011;48891;49.220;6.920;2023-01-23T08:29:09;27.67;;;16.60;;
62832;SDS011;48891;49.220;6.920;2023-01-23T08:31:34;29.00;;;17.38;;
62832;SDS011;48891;49.220;6.920;2023-01-23T08:34:00;27.50;;;16.98;;
62832;SDS011;48891;49.220;6.920;2023-01-23T08:36:25;27.10;;;17.05;;
62832;SDS011;48891;49.220;6.920;2023-01-23T08:38:51;29.08;;;17.83;;
62832;SDS011;48891;49.220;6.920;2023-01-23T08:41:16;27.20;;;17.58;;
62832;SDS011;48891;49.220;6.920;2023-01-23T08:43:41;24.98;;;16.95;;
62832;SDS011;48891;49.220;6.920;2023-01-23T08:46:07;27.50;;;16.92;;
62832;SDS011;48891;49.220;6.920;2023-01-23T08:48:33;26.90;;;17.10;;
62832;SDS011;48891;49.220;6.920;2023-01-23T08:51:02;27.25;;;17.38;;
62832;SDS011;48891;49.220;6.920;2023-01-23T08:53:30;30.13;;;18.67;;
62832;SDS011;48891;49.220;6.920;2023-01-23T08:56:03;25.60;;;16.55;;
62832;SDS011;48891;49.220;6.920;2023-01-23T08:58:30;25.85;;;16.58;;
62832;SDS011;48891;49.220;6.920;2023-01-23T09:00:56;25.98;;;17.20;;
62832;SDS011;48891;49.220;6.920;2023-01-23T09:03:22;29.52;;;18.30;;
62832;SDS011;48891;49.220;6.920;2023-01-23T09:05:47;28.50;;;18.42;;
62832;SDS011;48891;49.220;6.920;2023-01-23T09:08:12;29.90;;;18.67;;
62832;SDS011;48891;49.220;6.920;2023-01-23T09:10:38;26.48;;;17.50;;
62832;SDS011;48891;49.220;6.920;2023-01-23T09:13:03;28.10;;;17.60;;
62832;SDS011;48891;49.220;6.920;2023-01-23T09:15:28;30.10;;;18.38;;
62832;SDS011;48891;49.220;6.920;2023-01-23T09:17:54;28.33;;;18.67;;
62832;SDS011;48891;49.220;6.920;2023-01-23T09:20:19;27.90;;;17.95;;
62832;SDS011;48891;49.220;6.920;2023-01-23T09:22:44;26.95;;;18.00;;
62832;SDS011;48891;49.220;6.920;2023-01-23T09:25:10;26.80;;;18.45;;
62832;SDS011;48891;49.220;6.920;2023-01-23T09:27:35;26.30;;;17.08;;
62832;SDS011;48891;49.220;6.920;2023-01-23T09:30:01;27.48;;;17.95;;
62832;SDS011;48891;49.220;6.920;2023-01-23T09:32:26;26.88;;;18.52;;
62832;SDS011;48891;49.220;6.920;2023-01-23T09:34:51;26.83;;;18.33;;
62832;SDS011;48891;49.220;6.920;2023-01-23T09:37:16;25.55;;;17.95;;
62832;SDS011;48891;49.220;6.920;2023-01-23T09:39:42;29.00;;;19.23;;
62832;SDS011;48891;49.220;6.920;2023-01-23T09:42:28;27.13;;;18.58;;
62832;SDS011;48891;49.220;6.920;2023-01-23T09:45:02;27.17;;;18.58;;
62832;SDS011;48891;49.220;6.920;2023-01-23T09:47:34;26.02;;;18.20;;
62832;SDS011;48891;49.220;6.920;2023-01-23T09:50:39;28.35;;;18.88;;
62832;SDS011;48891;49.220;6.920;2023-01-23T09:53:08;26.95;;;18.85;;
62832;SDS011;48891;49.220;6.920;2023-01-23T09:55:46;27.08;;;18.17;;
62832;SDS011;48891;49.220;6.920;2023-01-23T09:58:17;32.70;;;19.88;;
62832;SDS011;48891;49.220;6.920;2023-01-23T10:00:48;28.52;;;19.10;;
62832;SDS011;48891;49.220;6.920;2023-01-23T10:03:15;30.40;;;19.70;;
62832;SDS011;48891;49.220;6.920;2023-01-23T10:05:43;29.38;;;19.20;;
62832;SDS011;48891;49.220;6.920;2023-01-23T10:08:35;30.80;;;19.95;;
62832;SDS011;48891;49.220;6.920;2023-01-23T10:11:19;29.48;;;19.65;;
62832;SDS011;48891;49.220;6.920;2023-01-23T10:13:57;29.67;;;19.88;;
62832;SDS011;48891;49.220;6.920;2023-01-23T10:19:16;31.27;;;20.02;;
62832;SDS011;48891;49.220;6.920;2023-01-23T10:24:55;29.33;;;20.33;;
62832;SDS011;48891;49.220;6.920;2023-01-23T10:27:23;28.67;;;19.90;;
62832;SDS011;48891;49.220;6.920;2023-01-23T10:29:55;32.28;;;20.75;;
62832;SDS011;48891;49.220;6.920;2023-01-23T10:32:25;30.98;;;21.27;;
62832;SDS011;48891;49.220;6.920;2023-01-23T10:35:00;27.10;;;19.90;;
62832;SDS011;48891;49.220;6.920;2023-01-23T10:42:40;31.20;;;21.45;;
62832;SDS011;48891;49.220;6.920;2023-01-23T10:45:06;25.73;;;19.50;;
62832;SDS011;48891;49.220;6.920;2023-01-23T10:47:46;31.35;;;21.33;;
62832;SDS011;48891;49.220;6.920;2023-01-23T10:50:12;29.35;;;20.35;;
62832;SDS011;48891;49.220;6.920;2023-01-23T10:52:39;29.65;;;20.02;;
62832;SDS011;48891;49.220;6.920;2023-01-23T10:57:46;28.98;;;20.13;;
62832;SDS011;48891;49.220;6.920;2023-01-23T11:00:35;31.23;;;21.33;;
62832;SDS011;48891;49.220;6.920;2023-01-23T11:05:56;29.83;;;20.08;;
62832;SDS011;48891;49.220;6.920;2023-01-23T11:13:39;28.60;;;20.25;;
62832;SDS011;48891;49.220;6.920;2023-01-23T11:16:07;27.77;;;20.42;;
62832;SDS011;48891;49.220;6.920;2023-01-23T11:18:41;30.05;;;20.88;;
62832;SDS011;48891;49.220;6.920;2023-01-23T11:21:23;30.65;;;21.17;;
62832;SDS011;48891;49.220;6.920;2023-01-23T11:24:06;31.08;;;21.63;;
62832;SDS011;48891;49.220;6.920;2023-01-23T11:26:34;28.58;;;20.42;;
62832;SDS011;48891;49.220;6.920;2023-01-23T11:29:00;30.02;;;22.17;;
62832;SDS011;48891;49.220;6.920;2023-01-23T11:31:25;29.95;;;20.70;;
62832;SDS011;48891;49.220;6.920;2023-01-23T11:41:49;30.60;;;21.65;;
62832;SDS011;48891;49.220;6.920;2023-01-23T11:44:19;27.92;;;20.67;;
62832;SDS011;48891;49.220;6.920;2023-01-23T11:46:56;27.40;;;20.27;;
62832;SDS011;48891;49.220;6.920;2023-01-23T11:49:30;29.77;;;21.17;;
62832;SDS011;48891;49.220;6.920;2023-01-23T12:14:39;30.20;;;20.73;;
62832;SDS011;48891;49.220;6.920;2023-01-23T12:20:02;27.38;;;20.08;;
62832;SDS011;48891;49.220;6.920;2023-01-23T12:25:47;27.83;;;20.33;;
62832;SDS011;48891;49.220;6.920;2023-01-23T12:36:34;28.15;;;19.25;;
62832;SDS011;48891;49.220;6.920;2023-01-23T12:39:43;28.50;;;20.10;;
62832;SDS011;48891;49.220;6.920;2023-01-23T12:42:41;30.38;;;21.52;;
62832;SDS011;48891;49.220;6.920;2023-01-23T12:45:14;26.58;;;20.20;;
62832;SDS011;48891;49.220;6.920;2023-01-23T12:47:52;27.63;;;19.30;;
62832;SDS011;48891;49.220;6.920;2023-01-23T12:53:16;27.70;;;19.65;;
62832;SDS011;48891;49.220;6.920;2023-01-23T12:58:20;23.73;;;19.10;;
62832;SDS011;48891;49.220;6.920;2023-01-23T13:12:20;25.90;;;19.63;;
62832;SDS011;48891;49.220;6.920;2023-01-23T13:14:47;30.00;;;21.23;;
62832;SDS011;48891;49.220;6.920;2023-01-23T13:17:30;25.85;;;19.80;;
62832;SDS011;48891;49.220;6.920;2023-01-23T13:22:46;28.23;;;20.27;;
62832;SDS011;48891;49.220;6.920;2023-01-23T13:25:12;33.75;;;21.42;;
62832;SDS011;48891;49.220;6.920;2023-01-23T13:32:48;29.08;;;20.52;;
62832;SDS011;48891;49.220;6.920;2023-01-23T13:40:58;28.20;;;20.90;;
62832;SDS011;48891;49.220;6.920;2023-01-23T13:51:55;27.65;;;21.20;;
62832;SDS011;48891;49.220;6.920;2023-01-23T13:54:25;29.08;;;21.52;;
62832;SDS011;48891;49.220;6.920;2023-01-23T13:56:53;29.58;;;21.20;;
62832;SDS011;48891;49.220;6.920;2023-01-23T14:02:10;30.85;;;22.75;;
62832;SDS011;48891;49.220;6.920;2023-01-23T14:04:49;28.92;;;21.50;;
62832;SDS011;48891;49.220;6.920;2023-01-23T14:07:25;30.52;;;22.80;;
62832;SDS011;48891;49.220;6.920;2023-01-23T14:09:55;29.40;;;22.48;;
62832;SDS011;48891;49.220;6.920;2023-01-23T14:12:27;31.65;;;22.88;;
62832;SDS011;48891;49.220;6.920;2023-01-23T14:14:53;30.60;;;22.48;;
62832;SDS011;48891;49.220;6.920;2023-01-23T14:17:22;29.38;;;22.20;;
62832;SDS011;48891;49.220;6.920;2023-01-23T14:19:56;31.20;;;22.92;;
62832;SDS011;48891;49.220;6.920;2023-01-23T14:22:27;32.03;;;23.58;;
62832;SDS011;48891;49.220;6.920;2023-01-23T14:24:54;29.58;;;23.67;;
62832;SDS011;48891;49.220;6.920;2023-01-23T14:27:26;31.98;;;23.73;;
62832;SDS011;48891;49.220;6.920;2023-01-23T14:29:54;30.02;;;23.75;;
62832;SDS011;48891;49.220;6.920;2023-01-23T14:32:39;34.70;;;24.92;;
62832;SDS011;48891;49.220;6.920;2023-01-23T14:37:54;31.38;;;24.85;;
62832;SDS011;48891;49.220;6.920;2023-01-23T14:40:23;34.47;;;25.60;;
62832;SDS011;48891;49.220;6.920;2023-01-23T14:42:51;32.10;;;24.00;;
62832;SDS011;48891;49.220;6.920;2023-01-23T14:45:32;36.97;;;26.08;;
62832;SDS011;48891;49.220;6.920;2023-01-23T14:47:59;32.03;;;25.08;;
62832;SDS011;48891;49.220;6.920;2023-01-23T14:50:26;34.75;;;24.95;;
62832;SDS011;48891;49.220;6.920;2023-01-23T14:52:57;32.70;;;25.08;;
62832;SDS011;48891;49.220;6.920;2023-01-23T14:55:38;33.22;;;25.27;;
62832;SDS011;48891;49.220;6.920;2023-01-23T14:58:05;34.30;;;25.45;;
62832;SDS011;48891;49.220;6.920;2023-01-23T15:00:36;35.40;;;27.10;;
62832;SDS011;48891;49.220;6.920;2023-01-23T15:03:03;35.38;;;25.50;;
62832;SDS011;48891;49.220;6.920;2023-01-23T15:05:29;35.13;;;27.05;;
62832;SDS011;48891;49.220;6.920;2023-01-23T15:15:23;35.88;;;27.15;;
62832;SDS011;48891;49.220;6.920;2023-01-23T15:17:50;36.28;;;26.73;;
62832;SDS011;48891;49.220;6.920;2023-01-23T15:22:51;36.78;;;26.75;;
62832;SDS011;48891;49.220;6.920;2023-01-23T15:25:25;35.83;;;27.67;;
62832;SDS011;48891;49.220;6.920;2023-01-23T15:27:54;35.95;;;26.83;;
62832;SDS011;48891;49.220;6.920;2023-01-23T15:32:57;35.03;;;25.88;;
62832;SDS011;48891;49.220;6.920;2023-01-23T15:35:24;37.15;;;27.38;;
62832;SDS011;48891;49.220;6.920;2023-01-23T15:37:49;35.20;;;25.52;;
62832;SDS011;48891;49.220;6.920;2023-01-23T15:40:17;33.10;;;26.80;;
62832;SDS011;48891;49.220;6.920;2023-01-23T15:45:37;34.35;;;27.80;;
62832;SDS011;48891;49.220;6.920;2023-01-23T15:48:02;33.67;;;25.70;;
62832;SDS011;48891;49.220;6.920;2023-01-23T15:50:28;38.20;;;29.35;;
62832;SDS011;48891;49.220;6.920;2023-01-23T15:52:53;36.80;;;26.75;;
62832;SDS011;48891;49.220;6.920;2023-01-23T15:55:20;35.53;;;26.77;;
62832;SDS011;48891;49.220;6.920;2023-01-23T15:57:47;36.30;;;27.55;;
62832;SDS011;48891;49.220;6.920;2023-01-23T16:00:19;37.92;;;27.65;;
62832;SDS011;48891;49.220;6.920;2023-01-23T16:02:49;35.88;;;27.45;;
62832;SDS011;48891;49.220;6.920;2023-01-23T16:05:14;36.83;;;27.70;;
62832;SDS011;48891;49.220;6.920;2023-01-23T16:07:40;35.38;;;27.10;;
62832;SDS011;48891;49.220;6.920;2023-01-23T16:10:27;36.83;;;27.20;;
62832;SDS011;48891;49.220;6.920;2023-01-23T16:12:53;37.50;;;28.27;;
62832;SDS011;48891;49.220;6.920;2023-01-23T16:15:21;37.75;;;27.52;;
62832;SDS011;48891;49.220;6.920;2023-01-23T16:17:48;39.25;;;29.75;;
62832;SDS011;48891;49.220;6.920;2023-01-23T16:20:21;36.17;;;27.20;;
62832;SDS011;48891;49.220;6.920;2023-01-23T16:22:50;38.17;;;28.75;;
62832;SDS011;48891;49.220;6.920;2023-01-23T16:27:57;37.30;;;27.50;;
62832;SDS011;48891;49.220;6.920;2023-01-23T16:30:22;36.75;;;28.48;;
62832;SDS011;48891;49.220;6.920;2023-01-23T16:32:49;37.20;;;27.45;;
62832;SDS011;48891;49.220;6.920;2023-01-23T16:35:14;37.83;;;28.08;;
62832;SDS011;48891;49.220;6.920;2023-01-23T16:37:40;37.30;;;28.38;;
62832;SDS011;48891;49.220;6.920;2023-01-23T16:40:17;39.65;;;28.80;;
62832;SDS011;48891;49.220;6.920;2023-01-23T16:42:45;37.75;;;29.10;;
62832;SDS011;48891;49.220;6.920;2023-01-23T16:47:47;37.75;;;28.67;;